(°C)
-3°
-3°
-3°
-2°
(°C)
-7°
-7°
-6°
-5°
-3°
-2°
-0°
ჩჩა
ჩრ.
ჩრ.
ჩრ.
ჩჩა
ჩჩა
ჩჩა
(კმ/სთ)
5-14
5-14
4-15
5-15
5-15
6-15
7-15
(მმ)
0
0
0
0
0
0
0
(%)
0
0
0
0
0
0
0

მზის სიმაღლე

/ -19.5°
sun-icon
UV 2
07:23
19:16
კლებადი მთვარე (264°)
22:08
15:41

METAR 55.03°ჩრ. 82.6°აღმ. (UNNT)-თვის

დრო პირობები ტემპერატურა/
ნამი
ქარი ხილვადობა ამინდი ღრუბლები წნევა ცვლილება დაუმუშავებელი
LIFR -3°C / -3°C variable 0kt 690m freezing Fog Vertical Visibility of 0ft. 1022 No Significant change. Runway 25: Clear and dry, 51-100% contamination with <1mm, friction coefficient 0.70. Runway 34: deposit not reported, . UNNT 272130Z 00000MPS 0700 0350E FZFG SCT001 M03/M03 Q1022 R25/090070 R34/////// NOSIG RMK QBB040 QFE756/1009
MVFR -3°C / -3°C variable 2kt 5000m Mist Vertical Visibility of 0ft. 1022 No Significant change. Runway 07: Clear and dry, 51-100% contamination with <1mm, friction coefficient 0.70. Runway 34: deposit not reported, . UNNT 272100Z VRB01MPS 5000 BR SCT003 M03/M03 Q1022 R07/090070 R34/////// NOSIG RMK QFE756/1009
IFR -3°C / -3°C 300º 2kt 1800m. Runway 07: Visual range is 2000m and increasing. freezing Fog Vertical Visibility of 0ft. 1022 No Significant change. Runway 07: Clear and dry, 51-100% contamination with <1mm, friction coefficient 0.70. Runway 34: deposit not reported, . UNNT 272030Z 30001MPS 1800 0300S R07/P2000U FZFG SCT001 M03/M03 Q1022 R07/090070 R34/////// NOSIG RMK QBB050 QFE756/1009
IFR -3°C / -3°C variable 0kt 3300m freezing Fog Vertical Visibility of 0ft. 1022 No Significant change. Runway 25: Clear and dry, 51-100% contamination with <1mm, friction coefficient 0.70. Runway 34: deposit not reported, . UNNT 272000Z 00000MPS 3300 0200SE FZFG FEW001 M03/M03 Q1022 R25/090070 R34/////// NOSIG RMK QBB040 QFE756/1009
LIFR -4°C / -4°C 320º 2kt 400m. Runway 25: Visual range is 1000m and increasing. freezing Fog Vertical Visibility of 0ft. 1022 No Significant change. Runway 25: Clear and dry, 51-100% contamination with <1mm, friction coefficient 0.70. Runway 34: deposit not reported, . UNNT 271930Z 32001MPS 0400 0200SE R25/1000U FZFG SCT001 M04/M04 Q1022 R25/090070 R34/////// NOSIG RMK QBB050 QFE757/1009
LIFR -3°C / -3°C 340º 2kt 450m. Runway 25: Visual range is 1100m and decreasing. freezing Fog Vertical Visibility of 0ft. 1022 No Significant change. Runway 25: Clear and dry, 51-100% contamination with <1mm, friction coefficient 0.70. Runway 34: deposit not reported, . UNNT 271900Z 34001MPS 0450 0200SE R25/1100D FZFG SCT001 M03/M03 Q1022 R25/090070 R34/////// NOSIG RMK QBB040 QFE757/1009
LIFR -2°C / -2°C 300º 2kt 260m. Runway 25: Visual range is 800m. freezing Fog Vertical Visibility of 0ft. 1023 No Significant change. Runway 25: Clear and dry, 51-100% contamination with <1mm, friction coefficient 0.70. Runway 34: deposit not reported, . UNNT 271830Z 30001MPS 0250 0150SE R25/0800N FZFG NSC M02/M02 Q1023 R25/090070 R34/////// NOSIG RMK QFE757/1009
MVFR -1°C / -1°C variable 0kt 6000m. Runway 07: Visual range is 2000m and decreasing. Mist Vertical Visibility of 0ft. 1023 No Significant change. Runway 07: Clear and dry, 51-100% contamination with <1mm, friction coefficient 0.70. Runway 34: deposit not reported, . UNNT 271800Z 00000MPS 6000 1200SE R07/P2000D BR NSC M01/M01 Q1023 R07/090070 R34/////// NOSIG RMK QFE757/1010
MVFR -2°C / -2°C 300º 2kt 8000m freezing Fog Vertical Visibility of 0ft. 1023 No Significant change. Runway 07: Clear and dry, 51-100% contamination with <1mm, friction coefficient 0.70. Runway 34: deposit not reported, . UNNT 271730Z 30001MPS 8000 0750SE FZFG NSC M02/M02 Q1023 R07/090070 R34/////// NOSIG RMK QFE757/1010
VFR 0°C / 0°C variable 0kt 9000m Mist Vertical Visibility of 0ft. 1023 No Significant change. Runway 07: Clear and dry, 51-100% contamination with <1mm, friction coefficient 0.70. Runway 34: deposit not reported, . UNNT 271700Z 00000MPS 9000 1800SE BR NSC 00/00 Q1023 R07/090070 R34/////// NOSIG RMK QFE757/1010
VFR -1°C / -1°C variable 0kt 9000m Mist Vertical Visibility of 0ft. 1023 No Significant change. Runway 25: Clear and dry, 51-100% contamination with <1mm, friction coefficient 0.70. Runway 34: deposit not reported, . UNNT 271630Z 00000MPS 9000 4400SE BR NSC M01/M01 Q1023 R25/090070 R34/////// NOSIG RMK QFE757/1010
VFR 0°C / 0°C 50º 2kt >10km - Clouds and Visibility OK 1024 No Significant change. Runway 25: Clear and dry, 51-100% contamination with <1mm, friction coefficient 0.70. Runway 34: deposit not reported, . UNNT 271600Z 05001MPS CAVOK 00/00 Q1024 R25/090070 R34/////// NOSIG RMK QFE758/1010
VFR 0°C / -1°C variable 2kt >10km - Clouds and Visibility OK 1024 No Significant change. Runway 25: Clear and dry, 51-100% contamination with <1mm, friction coefficient 0.70. Runway 34: deposit not reported, . UNNT 271530Z VRB01MPS CAVOK 00/M01 Q1024 R25/090070 R34/////// NOSIG RMK QFE758/1010
VFR 1°C / 0°C 70º 4kt >10km - Clouds and Visibility OK 1024 No Significant change. Runway 07: Clear and dry, 51-100% contamination with <1mm, friction coefficient 0.70. Runway 34: deposit not reported, . UNNT 271500Z 07002MPS CAVOK 01/00 Q1024 R07/090070 R34/////// NOSIG RMK QFE758/1011
VFR 2°C / 1°C 30º 2kt >10km - Clouds and Visibility OK 1024 No Significant change. Runway 07: Clear and dry, 51-100% contamination with <1mm, friction coefficient 0.70. Runway 34: deposit not reported, . UNNT 271430Z 03001MPS CAVOK 02/01 Q1024 R07/090070 R34/////// NOSIG RMK QFE758/1011
VFR 1°C / 0°C 20º 2kt >10km - Clouds and Visibility OK 1024 No Significant change. Runway 07: Clear and dry, 51-100% contamination with <1mm, friction coefficient 0.70. Runway 34: deposit not reported, . UNNT 271400Z 02001MPS CAVOK 01/00 Q1024 R07/090070 R34/////// NOSIG RMK QFE758/1011
VFR 2°C / 1°C 20º 2kt >10km - Clouds and Visibility OK 1024 No Significant change. Runway 07: Clear and dry, 51-100% contamination with <1mm, friction coefficient 0.70. Runway 34: deposit not reported, . UNNT 271330Z 02001MPS CAVOK 02/01 Q1024 R07/090070 R34/////// NOSIG RMK QFE758/1011
VFR 3°C / 1°C variable 0kt >10km - Clouds and Visibility OK 1024 No Significant change. Runway 07: Clear and dry, 51-100% contamination with <1mm, friction coefficient 0.70. Runway 34: deposit not reported, . UNNT 271300Z 00000MPS CAVOK 03/01 Q1024 R07/090070 R34/////// NOSIG RMK QFE758/1011
VFR 6°C / 2°C variable 0kt >10km - Clouds and Visibility OK 1024 No Significant change. Runway 07: Clear and dry, 51-100% contamination with <1mm, friction coefficient 0.70. Runway 34: deposit not reported, . UNNT 271230Z 00000MPS CAVOK 06/02 Q1024 R07/090070 R34/////// NOSIG RMK QFE758/1011
VFR 6°C / 1°C 140º 2kt >10km - Clouds and Visibility OK 1024 No Significant change. Runway 07: Clear and dry, 51-100% contamination with <1mm, friction coefficient 0.70. Runway 34: deposit not reported, . UNNT 271200Z 14001MPS CAVOK 06/01 Q1024 R07/090070 R34/////// NOSIG RMK QFE758/1011
VFR 7°C / 1°C 70º 4kt >10km - Clouds and Visibility OK 1025 No Significant change. Runway 07: Clear and dry, 51-100% contamination with <1mm, friction coefficient 0.70. Runway 34: deposit not reported, . UNNT 271130Z 07002MPS CAVOK 07/01 Q1025 R07/090070 R34/////// NOSIG RMK QFE758/1011
VFR 8°C / 1°C variable 2kt >10km - Scattered Clouds 3600ft 1025 No Significant change. Runway 07: Clear and dry, 51-100% contamination with <1mm, friction coefficient 0.70. Runway 34: deposit not reported, . UNNT 271100Z VRB01MPS 9999 SCT036 08/01 Q1025 R07/090070 R34/////// NOSIG RMK QFE758/1011
VFR 9°C / 1°C 140º 4kt >10km - Scattered Clouds 3300ft 1025 No Significant change. Runway 07: Clear and dry, 51-100% contamination with <1mm, friction coefficient 0.70. Runway 34: deposit not reported, . UNNT 271030Z 14002MPS 9999 SCT033CB 09/01 Q1025 R07/090070 R34/////// NOSIG RMK QFE758/1011
VFR 8°C / 1°C 130º 6kt >10km - Broken Clouds 4900ft 1025 No Significant change. Runway 07: Clear and dry, 51-100% contamination with <1mm, friction coefficient 0.70. Runway 34: deposit not reported, . UNNT 271000Z 13003MPS 9999 BKN049CB 08/01 Q1025 R07/090070 R34/////// NOSIG RMK QFE758/1011

LIFR

-3°C / -3°C

[მეტი]
ქარი variable 0kt
ხილვადობა 690m
ამინდი freezing Fog
ღრუბლები Vertical Visibility of 0ft.
წნევა 1022
ცვლილება No Significant change. Runway 25: Clear and dry, 51-100% contamination with <1mm, friction coefficient 0.70. Runway 34: deposit not reported, .
დაუმუშავებელი UNNT 272130Z 00000MPS 0700 0350E FZFG SCT001 M03/M03 Q1022 R25/090070 R34/////// NOSIG RMK QBB040 QFE756/1009

MVFR

-3°C / -3°C

[მეტი]
ქარი variable 2kt
ხილვადობა 5000m
ამინდი Mist
ღრუბლები Vertical Visibility of 0ft.
წნევა 1022
ცვლილება No Significant change. Runway 07: Clear and dry, 51-100% contamination with <1mm, friction coefficient 0.70. Runway 34: deposit not reported, .
დაუმუშავებელი UNNT 272100Z VRB01MPS 5000 BR SCT003 M03/M03 Q1022 R07/090070 R34/////// NOSIG RMK QFE756/1009

IFR

-3°C / -3°C

[მეტი]
ქარი 300º 2kt
ხილვადობა 1800m. Runway 07: Visual range is 2000m and increasing.
ამინდი freezing Fog
ღრუბლები Vertical Visibility of 0ft.
წნევა 1022
ცვლილება No Significant change. Runway 07: Clear and dry, 51-100% contamination with <1mm, friction coefficient 0.70. Runway 34: deposit not reported, .
დაუმუშავებელი UNNT 272030Z 30001MPS 1800 0300S R07/P2000U FZFG SCT001 M03/M03 Q1022 R07/090070 R34/////// NOSIG RMK QBB050 QFE756/1009

IFR

-3°C / -3°C

[მეტი]
ქარი variable 0kt
ხილვადობა 3300m
ამინდი freezing Fog
ღრუბლები Vertical Visibility of 0ft.
წნევა 1022
ცვლილება No Significant change. Runway 25: Clear and dry, 51-100% contamination with <1mm, friction coefficient 0.70. Runway 34: deposit not reported, .
დაუმუშავებელი UNNT 272000Z 00000MPS 3300 0200SE FZFG FEW001 M03/M03 Q1022 R25/090070 R34/////// NOSIG RMK QBB040 QFE756/1009

LIFR

-4°C / -4°C

[მეტი]
ქარი 320º 2kt
ხილვადობა 400m. Runway 25: Visual range is 1000m and increasing.
ამინდი freezing Fog
ღრუბლები Vertical Visibility of 0ft.
წნევა 1022
ცვლილება No Significant change. Runway 25: Clear and dry, 51-100% contamination with <1mm, friction coefficient 0.70. Runway 34: deposit not reported, .
დაუმუშავებელი UNNT 271930Z 32001MPS 0400 0200SE R25/1000U FZFG SCT001 M04/M04 Q1022 R25/090070 R34/////// NOSIG RMK QBB050 QFE757/1009

LIFR

-3°C / -3°C

[მეტი]
ქარი 340º 2kt
ხილვადობა 450m. Runway 25: Visual range is 1100m and decreasing.
ამინდი freezing Fog
ღრუბლები Vertical Visibility of 0ft.
წნევა 1022
ცვლილება No Significant change. Runway 25: Clear and dry, 51-100% contamination with <1mm, friction coefficient 0.70. Runway 34: deposit not reported, .
დაუმუშავებელი UNNT 271900Z 34001MPS 0450 0200SE R25/1100D FZFG SCT001 M03/M03 Q1022 R25/090070 R34/////// NOSIG RMK QBB040 QFE757/1009

LIFR

-2°C / -2°C

[მეტი]
ქარი 300º 2kt
ხილვადობა 260m. Runway 25: Visual range is 800m.
ამინდი freezing Fog
ღრუბლები Vertical Visibility of 0ft.
წნევა 1023
ცვლილება No Significant change. Runway 25: Clear and dry, 51-100% contamination with <1mm, friction coefficient 0.70. Runway 34: deposit not reported, .
დაუმუშავებელი UNNT 271830Z 30001MPS 0250 0150SE R25/0800N FZFG NSC M02/M02 Q1023 R25/090070 R34/////// NOSIG RMK QFE757/1009

MVFR

-1°C / -1°C

[მეტი]
ქარი variable 0kt
ხილვადობა 6000m. Runway 07: Visual range is 2000m and decreasing.
ამინდი Mist
ღრუბლები Vertical Visibility of 0ft.
წნევა 1023
ცვლილება No Significant change. Runway 07: Clear and dry, 51-100% contamination with <1mm, friction coefficient 0.70. Runway 34: deposit not reported, .
დაუმუშავებელი UNNT 271800Z 00000MPS 6000 1200SE R07/P2000D BR NSC M01/M01 Q1023 R07/090070 R34/////// NOSIG RMK QFE757/1010

MVFR

-2°C / -2°C

[მეტი]
ქარი 300º 2kt
ხილვადობა 8000m
ამინდი freezing Fog
ღრუბლები Vertical Visibility of 0ft.
წნევა 1023
ცვლილება No Significant change. Runway 07: Clear and dry, 51-100% contamination with <1mm, friction coefficient 0.70. Runway 34: deposit not reported, .
დაუმუშავებელი UNNT 271730Z 30001MPS 8000 0750SE FZFG NSC M02/M02 Q1023 R07/090070 R34/////// NOSIG RMK QFE757/1010

VFR

0°C / 0°C

[მეტი]
ქარი variable 0kt
ხილვადობა 9000m
ამინდი Mist
ღრუბლები Vertical Visibility of 0ft.
წნევა 1023
ცვლილება No Significant change. Runway 07: Clear and dry, 51-100% contamination with <1mm, friction coefficient 0.70. Runway 34: deposit not reported, .
დაუმუშავებელი UNNT 271700Z 00000MPS 9000 1800SE BR NSC 00/00 Q1023 R07/090070 R34/////// NOSIG RMK QFE757/1010

VFR

-1°C / -1°C

[მეტი]
ქარი variable 0kt
ხილვადობა 9000m
ამინდი Mist
ღრუბლები Vertical Visibility of 0ft.
წნევა 1023
ცვლილება No Significant change. Runway 25: Clear and dry, 51-100% contamination with <1mm, friction coefficient 0.70. Runway 34: deposit not reported, .
დაუმუშავებელი UNNT 271630Z 00000MPS 9000 4400SE BR NSC M01/M01 Q1023 R25/090070 R34/////// NOSIG RMK QFE757/1010

VFR

0°C / 0°C

[მეტი]
ქარი 50º 2kt
ხილვადობა >10km
ამინდი -
ღრუბლები Clouds and Visibility OK
წნევა 1024
ცვლილება No Significant change. Runway 25: Clear and dry, 51-100% contamination with <1mm, friction coefficient 0.70. Runway 34: deposit not reported, .
დაუმუშავებელი UNNT 271600Z 05001MPS CAVOK 00/00 Q1024 R25/090070 R34/////// NOSIG RMK QFE758/1010

VFR

0°C / -1°C

[მეტი]
ქარი variable 2kt
ხილვადობა >10km
ამინდი -
ღრუბლები Clouds and Visibility OK
წნევა 1024
ცვლილება No Significant change. Runway 25: Clear and dry, 51-100% contamination with <1mm, friction coefficient 0.70. Runway 34: deposit not reported, .
დაუმუშავებელი UNNT 271530Z VRB01MPS CAVOK 00/M01 Q1024 R25/090070 R34/////// NOSIG RMK QFE758/1010

VFR

1°C / 0°C

[მეტი]
ქარი 70º 4kt
ხილვადობა >10km
ამინდი -
ღრუბლები Clouds and Visibility OK
წნევა 1024
ცვლილება No Significant change. Runway 07: Clear and dry, 51-100% contamination with <1mm, friction coefficient 0.70. Runway 34: deposit not reported, .
დაუმუშავებელი UNNT 271500Z 07002MPS CAVOK 01/00 Q1024 R07/090070 R34/////// NOSIG RMK QFE758/1011

VFR

2°C / 1°C

[მეტი]
ქარი 30º 2kt
ხილვადობა >10km
ამინდი -
ღრუბლები Clouds and Visibility OK
წნევა 1024
ცვლილება No Significant change. Runway 07: Clear and dry, 51-100% contamination with <1mm, friction coefficient 0.70. Runway 34: deposit not reported, .
დაუმუშავებელი UNNT 271430Z 03001MPS CAVOK 02/01 Q1024 R07/090070 R34/////// NOSIG RMK QFE758/1011

VFR

1°C / 0°C

[მეტი]
ქარი 20º 2kt
ხილვადობა >10km
ამინდი -
ღრუბლები Clouds and Visibility OK
წნევა 1024
ცვლილება No Significant change. Runway 07: Clear and dry, 51-100% contamination with <1mm, friction coefficient 0.70. Runway 34: deposit not reported, .
დაუმუშავებელი UNNT 271400Z 02001MPS CAVOK 01/00 Q1024 R07/090070 R34/////// NOSIG RMK QFE758/1011

VFR

2°C / 1°C

[მეტი]
ქარი 20º 2kt
ხილვადობა >10km
ამინდი -
ღრუბლები Clouds and Visibility OK
წნევა 1024
ცვლილება No Significant change. Runway 07: Clear and dry, 51-100% contamination with <1mm, friction coefficient 0.70. Runway 34: deposit not reported, .
დაუმუშავებელი UNNT 271330Z 02001MPS CAVOK 02/01 Q1024 R07/090070 R34/////// NOSIG RMK QFE758/1011

VFR

3°C / 1°C

[მეტი]
ქარი variable 0kt
ხილვადობა >10km
ამინდი -
ღრუბლები Clouds and Visibility OK
წნევა 1024
ცვლილება No Significant change. Runway 07: Clear and dry, 51-100% contamination with <1mm, friction coefficient 0.70. Runway 34: deposit not reported, .
დაუმუშავებელი UNNT 271300Z 00000MPS CAVOK 03/01 Q1024 R07/090070 R34/////// NOSIG RMK QFE758/1011

VFR

6°C / 2°C

[მეტი]
ქარი variable 0kt
ხილვადობა >10km
ამინდი -
ღრუბლები Clouds and Visibility OK
წნევა 1024
ცვლილება No Significant change. Runway 07: Clear and dry, 51-100% contamination with <1mm, friction coefficient 0.70. Runway 34: deposit not reported, .
დაუმუშავებელი UNNT 271230Z 00000MPS CAVOK 06/02 Q1024 R07/090070 R34/////// NOSIG RMK QFE758/1011

VFR

6°C / 1°C

[მეტი]
ქარი 140º 2kt
ხილვადობა >10km
ამინდი -
ღრუბლები Clouds and Visibility OK
წნევა 1024
ცვლილება No Significant change. Runway 07: Clear and dry, 51-100% contamination with <1mm, friction coefficient 0.70. Runway 34: deposit not reported, .
დაუმუშავებელი UNNT 271200Z 14001MPS CAVOK 06/01 Q1024 R07/090070 R34/////// NOSIG RMK QFE758/1011

VFR

7°C / 1°C

[მეტი]
ქარი 70º 4kt
ხილვადობა >10km
ამინდი -
ღრუბლები Clouds and Visibility OK
წნევა 1025
ცვლილება No Significant change. Runway 07: Clear and dry, 51-100% contamination with <1mm, friction coefficient 0.70. Runway 34: deposit not reported, .
დაუმუშავებელი UNNT 271130Z 07002MPS CAVOK 07/01 Q1025 R07/090070 R34/////// NOSIG RMK QFE758/1011

VFR

8°C / 1°C

[მეტი]
ქარი variable 2kt
ხილვადობა >10km
ამინდი -
ღრუბლები Scattered Clouds 3600ft
წნევა 1025
ცვლილება No Significant change. Runway 07: Clear and dry, 51-100% contamination with <1mm, friction coefficient 0.70. Runway 34: deposit not reported, .
დაუმუშავებელი UNNT 271100Z VRB01MPS 9999 SCT036 08/01 Q1025 R07/090070 R34/////// NOSIG RMK QFE758/1011

VFR

9°C / 1°C

[მეტი]
ქარი 140º 4kt
ხილვადობა >10km
ამინდი -
ღრუბლები Scattered Clouds 3300ft
წნევა 1025
ცვლილება No Significant change. Runway 07: Clear and dry, 51-100% contamination with <1mm, friction coefficient 0.70. Runway 34: deposit not reported, .
დაუმუშავებელი UNNT 271030Z 14002MPS 9999 SCT033CB 09/01 Q1025 R07/090070 R34/////// NOSIG RMK QFE758/1011

VFR

8°C / 1°C

[მეტი]
ქარი 130º 6kt
ხილვადობა >10km
ამინდი -
ღრუბლები Broken Clouds 4900ft
წნევა 1025
ცვლილება No Significant change. Runway 07: Clear and dry, 51-100% contamination with <1mm, friction coefficient 0.70. Runway 34: deposit not reported, .
დაუმუშავებელი UNNT 271000Z 13003MPS 9999 BKN049CB 08/01 Q1025 R07/090070 R34/////// NOSIG RMK QFE758/1011

TAF 55.03°ჩრ. 82.6°აღმ. (UNNT)-თვის

From till


From till Wind 10º 6kt. Gust 16kt. Visibility 144.841m. freezing Fog . Broken Clouds 100ft.
Temporarly from till Visibility 3000m. Mist . Broken Clouds 500ft.
Becoming from till Wind 10º 6kt. Gust 16kt. Visibility 10km or more. Scattered Clouds 4000ft.
Becoming from till Wind 50º 6kt. Gust 16kt. Visibility 10km or more. Scattered Clouds 4000ft.

დაუმუშავებელი: TAF AMD UNNT 272118Z 2721/2821 01003G08MPS 0150 FZFG BKN001 TEMPO 2721/2803 3000 BR BKN005 BECMG 2803/2805 9999 NSW SCT040 BECMG 2805/2808 05003G08MPS

მიმდინარე სატელიტისა და წვიმის სურათები 55.03°ჩრ. 82.6°აღმ.-თვის

ლოკაციის მარკერი დაყენებყლია 55.03°ჩრ. 82.6°აღმ.ზე. [მეტი]

რეალურ დროში სატელიტური სურათი აერთიანებს ხილულ სინათლეს დღისით ღამის განმავლობაში ინფრაწითელ გამოსხივებასთან ერთად. ღამით, სურათი არ არის მუქი, რადგან ინფრაწითელ გამოსხივებას შეუძლია ტემპერატურის განსხვავებების დადგენა. სამწუხაროდ, დაბალი ღრუბლები და ნისლი ძნელია განასხვავონ მიწის ტემპერატურისგან და, შესაბამისად, ისინი შეიძლება თითქმის არ ჩანდეს ღამით. Meteosat სატელიტური გამოსახულება ევროპისთვის ახლდება რეალურ დროში ყოველ 5 წუთში. GOES-16/GOES-17 (ჩრდილოეთი და სამხრეთ ამერიკა) და ჰიმავარი (აზია) გამოსახულებები ახლდება ყოველ 10 წუთში.

საავტორო უფლებები 2021 EUMETSAT / meteoblue. / საავტორო უფლებები 2021 meteoblue

რადარის და ნალექების მაჩვენებელი 55.03°ჩრ. 82.6°აღმ. -თვის

გაწურეთ
Მსუბუქი
ზომიერი
Მძიმე
Ძალიან მძიმე
სეტყვა

მდებარეობის მარკერი მოთავსებულია 55.03°ჩრ. 82.6°აღმ. -ზე. ეს ანიმაცია აჩვენებს ნალექების სარადარო მონაცემებს როგორც ბოლო საათის განმავლობაში, ასევე 1h პროგნოზს. წვიმა ან თოვლის მსუბუქი ვარდნა შეიძლება უჩინარი იყოს რადარისთვის. ნალექების ინტენსივობა არის კოდირებული ფერით, დაწყებული ღია ლურჯიდან ნარინჯისფერამდე.